^^
B2 Weather Station Historical Data
Daily Summary for November 3, 2018 Units:  English    Metric   Both
Daily Weekly Monthly Yearly Custom
  High: Low: Average:
Temperature: 52.1 °F 31.2 °F 43.1 °F
Dew Point: 42.2 °F 29.4 °F 38.3 °F
Humidity: 94% 62% 84%
Wind Speed: 10.4mph 0.0mph 3.4mph
Wind Gust: 6.3mph - -
Wind- - East
Pressure: 30.21 in 29.93 in -
Precipitation: 0.04 in    
Historical Graphs
 
 
Tabular Data for November 3, 2018
Time Temperature Dew Point Pressure Wind Wind Speed Wind Gust Humidity Rainfall Rate (Hourly) solar
00:04 41.0 °F 37.4 °F 29.93 in Calm     87% 0.00 in 0.00 W/m2
00:09 40.9 °F 37.3 °F 29.93 in Calm     87% 0.00 in 0.00 W/m2
00:14 40.6 °F 37.0 °F 29.93 in Calm     87% 0.00 in 0.00 W/m2
00:19 40.2 °F 36.6 °F 29.93 in Calm     87% 0.00 in 0.00 W/m2
00:24 39.7 °F 36.1 °F 29.94 in Calm     87% 0.00 in 0.00 W/m2
00:29 39.3 °F 36.0 °F 29.94 in Calm     88% 0.00 in 0.00 W/m2
00:34 39.2 °F 36.2 °F 29.94 in Calm     89% 0.00 in 0.00 W/m2
00:39 39.2 °F 36.2 °F 29.94 in Calm     89% 0.00 in 0.00 W/m2
00:44 39.2 °F 36.5 °F 29.94 in Calm     90% 0.00 in 0.00 W/m2
00:49 39.1 °F 36.4 °F 29.94 in Calm     90% 0.00 in 0.00 W/m2
00:54 39.0 °F 36.3 °F 29.94 in Calm     90% 0.00 in 0.00 W/m2
00:59 38.8 °F 36.1 °F 29.94 in Calm     90% 0.00 in 0.00 W/m2
01:04 38.5 °F 35.8 °F 29.94 in Calm     90% 0.00 in 0.00 W/m2
01:09 38.1 °F 35.4 °F 29.95 in Calm     90% 0.00 in 0.00 W/m2
01:14 37.9 °F 35.5 °F 29.95 in Calm     91% 0.00 in 0.00 W/m2
01:19 38.3 °F 36.2 °F 29.95 in Calm     92% 0.00 in 0.00 W/m2
01:24 38.6 °F 36.5 °F 29.95 in Calm     92% 0.00 in 0.00 W/m2
01:29 38.7 °F 36.6 °F 29.95 in Calm     92% 0.00 in 0.00 W/m2
01:34 38.8 °F 36.7 °F 29.95 in Calm     92% 0.00 in 0.00 W/m2
01:39 39.0 °F 36.9 °F 29.95 in Calm     92% 0.00 in 0.00 W/m2
01:44 39.2 °F 37.1 °F 29.96 in Calm     92% 0.00 in 0.00 W/m2
01:49 39.3 °F 37.2 °F 29.96 in Calm     92% 0.00 in 0.00 W/m2
01:54 39.5 °F 37.4 °F 29.96 in Calm     92% 0.00 in 0.00 W/m2
01:59 39.7 °F 37.6 °F 29.96 in Calm     92% 0.00 in 0.00 W/m2
02:04 39.8 °F 37.7 °F 29.96 in Calm     92% 0.00 in 0.00 W/m2
02:09 39.8 °F 37.4 °F 29.96 in Calm     91% 0.00 in 0.00 W/m2
02:14 39.9 °F 37.8 °F 29.96 in Calm     92% 0.00 in 0.00 W/m2
02:19 40.0 °F 37.6 °F 29.97 in Calm     91% 0.00 in 0.00 W/m2
02:24 40.1 °F 37.7 °F 29.97 in Calm     91% 0.00 in 0.00 W/m2
02:29 40.1 °F 37.7 °F 29.97 in Calm     91% 0.00 in 0.00 W/m2
02:34 40.2 °F 37.8 °F 29.97 in Calm     91% 0.00 in 0.00 W/m2
02:39 40.3 °F 37.9 °F 29.97 in Calm     91% 0.00 in 0.00 W/m2
02:44 40.2 °F 37.8 °F 29.97 in Calm     91% 0.00 in 0.00 W/m2
02:49 40.1 °F 37.7 °F 29.98 in Calm     91% 0.00 in 0.00 W/m2
02:54 40.0 °F 37.6 °F 29.98 in Calm     91% 0.00 in 0.00 W/m2
02:59 39.9 °F 37.5 °F 29.98 in Calm     91% 0.00 in 0.00 W/m2
03:04 39.8 °F 37.4 °F 29.98 in Calm     91% 0.00 in 0.00 W/m2
03:09 39.6 °F 37.2 °F 29.98 in Calm     91% 0.00 in 0.00 W/m2
03:15 39.5 °F 37.1 °F 29.98 in Calm     91% 0.00 in 0.00 W/m2
03:19 39.4 °F 37.0 °F 29.98 in Calm     91% 0.00 in 0.00 W/m2
03:24 39.4 °F 37.3 °F 29.98 in Calm     92% 0.00 in 0.00 W/m2
03:29 39.5 °F 37.4 °F 29.98 in Calm     92% 0.00 in 0.00 W/m2
03:34 39.5 °F 37.1 °F 29.98 in Calm     91% 0.00 in 0.00 W/m2
03:39 39.2 °F 36.8 °F 29.98 in Calm     91% 0.00 in 0.00 W/m2
03:44 39.1 °F 36.7 °F 29.99 in Calm     91% 0.00 in 0.00 W/m2
03:49 38.9 °F 36.5 °F 29.99 in Calm     91% 0.00 in 0.00 W/m2
03:54 38.6 °F 36.2 °F 29.99 in Calm     91% 0.00 in 0.00 W/m2
03:59 38.3 °F 35.9 °F 29.99 in Calm     91% 0.00 in 0.00 W/m2
04:04 38.3 °F 35.9 °F 29.99 in Calm     91% 0.00 in 0.00 W/m2
04:09 38.0 °F 35.6 °F 29.98 in Calm     91% 0.00 in 0.00 W/m2
04:14 37.9 °F 35.5 °F 29.99 in Calm     91% 0.00 in 0.00 W/m2
04:19 38.0 °F 35.9 °F 29.99 in Calm     92% 0.00 in 0.00 W/m2
04:24 37.8 °F 35.4 °F 29.99 in Calm     91% 0.00 in 0.00 W/m2
04:29 37.4 °F 35.0 °F 29.99 in Calm     91% 0.00 in 0.00 W/m2
04:34 37.2 °F 34.8 °F 29.99 in Calm     91% 0.00 in 0.00 W/m2
04:39 37.0 °F 34.6 °F 30.00 in Calm     91% 0.00 in 0.00 W/m2
04:44 36.8 °F 34.7 °F 30.00 in Calm     92% 0.00 in 0.00 W/m2
04:49 36.6 °F 34.5 °F 30.00 in Calm     92% 0.00 in 0.00 W/m2
04:54 36.3 °F 34.2 °F 30.00 in Calm     92% 0.00 in 0.00 W/m2
04:59 36.0 °F 33.6 °F 30.01 in Calm     91% 0.00 in 0.00 W/m2
05:05 35.6 °F 33.2 °F 30.00 in Calm     91% 0.00 in 0.00 W/m2
05:09 35.2 °F 32.8 °F 30.01 in Calm     91% 0.00 in 0.00 W/m2
05:14 34.7 °F 32.3 °F 30.01 in Calm     91% 0.00 in 0.00 W/m2
05:19 34.2 °F 31.8 °F 30.01 in Calm     91% 0.00 in 0.00 W/m2
05:24 34.4 °F 32.6 °F 30.02 in Calm     93% 0.00 in 0.00 W/m2
05:29 34.7 °F 32.9 °F 30.02 in Calm     93% 0.00 in 0.00 W/m2
05:34 34.6 °F 32.8 °F 30.01 in Calm     93% 0.00 in 0.00 W/m2
05:39 34.2 °F 32.1 °F 30.01 in Calm     92% 0.00 in 0.00 W/m2
05:44 33.9 °F 31.8 °F 30.02 in Calm     92% 0.00 in 0.00 W/m2
05:49 33.6 °F 31.5 °F 30.02 in Calm     92% 0.00 in 0.00 W/m2
05:54 33.5 °F 31.7 °F 30.02 in Calm     93% 0.00 in 0.00 W/m2
05:59 33.5 °F 31.7 °F 30.02 in Calm     93% 0.00 in 0.00 W/m2
06:04 33.3 °F 31.5 °F 30.02 in Calm     93% 0.00 in 0.00 W/m2
06:09 32.8 °F 30.7 °F 30.03 in Calm     92% 0.00 in 0.00 W/m2
06:14 32.6 °F 30.8 °F 30.03 in Calm     93% 0.00 in 0.00 W/m2
06:19 32.9 °F 31.4 °F 30.03 in Calm     94% 0.00 in 0.00 W/m2
06:24 33.4 °F 31.9 °F 30.04 in Calm     94% 0.00 in 0.00 W/m2
06:29 33.6 °F 32.1 °F 30.04 in Calm     94% 0.00 in 0.00 W/m2
06:34 33.8 °F 32.3 °F 30.04 in Calm     94% 0.00 in 0.00 W/m2
06:39 33.6 °F 32.1 °F 30.04 in Calm     94% 0.00 in 0.00 W/m2
06:44 33.4 °F 31.6 °F 30.05 in Calm     93% 0.00 in 0.00 W/m2
06:49 33.2 °F 31.4 °F 30.05 in Calm     93% 0.00 in 0.00 W/m2
06:54 33.2 °F 31.7 °F 30.05 in Calm     94% 0.00 in 0.00 W/m2
06:59 33.0 °F 31.5 °F 30.05 in Calm     94% 0.00 in 0.00 W/m2
07:04 32.6 °F 30.8 °F 30.05 in Calm     93% 0.00 in 0.00 W/m2
07:09 32.3 °F 30.5 °F 30.05 in Calm     93% 0.00 in 0.00 W/m2
07:14 32.2 °F 30.4 °F 30.05 in Calm     93% 0.00 in 0.00 W/m2
07:19 32.0 °F 30.2 °F 30.06 in Calm     93% 0.00 in 0.00 W/m2
07:24 31.9 °F 30.4 °F 30.06 in Calm     94% 0.00 in 0.00 W/m2
07:29 31.6 °F 29.8 °F 30.06 in Calm     93% 0.00 in 7.00 W/m2
07:34 31.2 °F 29.4 °F 30.05 in Calm     93% 0.00 in 11.00 W/m2
07:39 31.6 °F 30.1 °F 30.06 in Calm     94% 0.00 in 16.00 W/m2
07:44 32.2 °F 30.7 °F 30.06 in Calm     94% 0.00 in 25.00 W/m2
07:49 32.8 °F 31.3 °F 30.06 in Calm     94% 0.00 in 35.00 W/m2
07:54 33.2 °F 31.7 °F 30.07 in Calm     94% 0.00 in 49.00 W/m2
07:59 33.7 °F 32.2 °F 30.08 in Calm     94% 0.00 in 40.00 W/m2
08:04 34.2 °F 32.7 °F 30.08 in Calm     94% 0.00 in 35.00 W/m2
08:09 34.6 °F 33.1 °F 30.09 in Calm     94% 0.00 in 19.00 W/m2
08:14 35.0 °F 33.4 °F 30.09 in Calm     94% 0.00 in 33.00 W/m2
08:20 35.5 °F 33.9 °F 30.09 in Calm     94% 0.00 in 30.00 W/m2
08:24 35.7 °F 34.1 °F 30.09 in Calm     94% 0.00 in 33.00 W/m2
08:29 36.0 °F 34.4 °F 30.10 in Calm     94% 0.00 in 40.00 W/m2
08:35 36.4 °F 34.8 °F 30.10 in Calm     94% 0.00 in 42.00 W/m2
08:39 36.6 °F 35.0 °F 30.10 in Calm     94% 0.00 in 47.00 W/m2
08:44 36.9 °F 35.3 °F 30.11 in Calm     94% 0.00 in 60.00 W/m2
08:49 37.2 °F 35.6 °F 30.11 in Calm     94% 0.00 in 63.00 W/m2
08:54 37.6 °F 36.0 °F 30.11 in Calm     94% 0.00 in 60.00 W/m2
08:59 37.9 °F 36.3 °F 30.11 in Calm     94% 0.00 in 60.00 W/m2
09:04 38.2 °F 36.6 °F 30.12 in Calm     94% 0.00 in 58.00 W/m2
09:09 38.4 °F 36.8 °F 30.12 in Calm     94% 0.00 in 56.00 W/m2
09:14 38.6 °F 37.0 °F 30.13 in Calm     94% 0.00 in 47.00 W/m2
09:19 38.8 °F 37.2 °F 30.13 in Calm     94% 0.00 in 49.00 W/m2
09:24 38.9 °F 37.3 °F 30.13 in Calm     94% 0.00 in 58.00 W/m2
09:29 39.1 °F 37.5 °F 30.13 in Calm     94% 0.00 in 56.00 W/m2
09:34 39.2 °F 37.6 °F 30.14 in Calm     94% 0.00 in 62.00 W/m2
09:39 39.5 °F 37.9 °F 30.14 in Calm     94% 0.00 in 67.00 W/m2
09:44 39.7 °F 38.1 °F 30.14 in Calm     94% 0.00 in 72.00 W/m2
09:49 39.8 °F 38.2 °F 30.14 in Calm     94% 0.00 in 83.00 W/m2
09:54 40.0 °F 38.4 °F 30.14 in Calm     94% 0.00 in 86.00 W/m2
09:59 40.4 °F 38.8 °F 30.14 in Calm     94% 0.00 in 105.00 W/m2
10:04 40.8 °F 39.2 °F 30.14 in NE 2.3 mph 0.4 mph 94% 0.00 in 135.00 W/m2
10:09 41.1 °F 39.2 °F 30.14 in ENE 3.5 mph 1.4 mph 93% 0.00 in 165.00 W/m2
10:14 41.5 °F 39.6 °F 30.15 in NE 3.5 mph 1.3 mph 93% 0.00 in 162.00 W/m2
10:19 41.8 °F 39.9 °F 30.15 in NE 3.5 mph 2.2 mph 93% 0.00 in 162.00 W/m2
10:24 42.2 °F 40.0 °F 30.15 in Calm     92% 0.00 in 163.00 W/m2
10:29 42.6 °F 40.4 °F 30.15 in Calm     92% 0.00 in 174.00 W/m2
10:34 42.9 °F 40.5 °F 30.15 in ENE 4.6 mph 3.0 mph 91% 0.00 in 186.00 W/m2
10:39 43.2 °F 40.5 °F 30.16 in East 3.0 mph 0.9 mph 90% 0.00 in 186.00 W/m2
10:44 43.6 °F 40.9 °F 30.16 in East 4.6 mph 1.3 mph 90% 0.00 in 172.00 W/m2
10:49 43.9 °F 40.9 °F 30.17 in Calm     89% 0.00 in 167.00 W/m2
10:55 44.1 °F 40.8 °F 30.17 in Calm     88% 0.00 in 186.00 W/m2
10:59 44.5 °F 41.2 °F 30.17 in ESE 3.5 mph 1.4 mph 88% 0.00 in 153.00 W/m2
11:04 44.6 °F 41.0 °F 30.17 in Calm     87% 0.00 in 132.00 W/m2
11:09 44.7 °F 40.8 °F 30.17 in SE 3.5 mph 0.8 mph 86% 0.00 in 139.00 W/m2
11:14 44.7 °F 40.5 °F 30.17 in SE 3.5 mph 1.8 mph 85% 0.00 in 165.00 W/m2
11:19 44.9 °F 40.7 °F 30.17 in ESE 3.5 mph 1.6 mph 85% 0.00 in 185.00 W/m2
11:24 45.1 °F 40.6 °F 30.17 in ESE 4.6 mph 0.1 mph 84% 0.00 in 265.00 W/m2
11:29 45.3 °F 40.4 °F 30.17 in East 3.5 mph 1.3 mph 83% 0.00 in 207.00 W/m2
11:35 45.6 °F 40.7 °F 30.17 in ESE 3.5 mph 2.0 mph 83% 0.00 in 193.00 W/m2
11:39 45.8 °F 40.0 °F 30.17 in East 5.0 mph 2.7 mph 80% 0.00 in 183.00 W/m2
11:44 46.0 °F 39.9 °F 30.17 in SE 3.5 mph 2.1 mph 79% 0.00 in 209.00 W/m2
11:49 46.2 °F 39.7 °F 30.17 in SSE 5.8 mph 2.5 mph 78% 0.00 in 236.00 W/m2
11:54 46.5 °F 39.7 °F 30.17 in ESE 6.9 mph 3.0 mph 77% 0.00 in 295.00 W/m2
11:59 46.8 °F 39.6 °F 30.17 in East 8.1 mph 4.0 mph 76% 0.00 in 311.00 W/m2
12:04 47.3 °F 40.5 °F 30.17 in ESE 4.6 mph 3.2 mph 77% 0.00 in 269.00 W/m2
12:09 47.4 °F 39.2 °F 30.17 in East 8.1 mph 4.0 mph 73% 0.00 in 338.00 W/m2
12:14 48.0 °F 39.8 °F 30.17 in ESE 6.9 mph 4.5 mph 73% 0.00 in 731.00 W/m2
12:19 48.9 °F 39.9 °F 30.17 in ENE 8.1 mph 4.0 mph 71% 0.00 in 381.00 W/m2
12:24 49.5 °F 40.1 °F 30.16 in ESE 6.9 mph 5.8 mph 70% 0.00 in 461.00 W/m2
12:29 49.5 °F 38.6 °F 30.16 in East 9.2 mph 4.8 mph 66% 0.00 in 288.00 W/m2
12:34 49.0 °F 38.1 °F 30.16 in ESE 9.2 mph 4.2 mph 66% 0.00 in 229.00 W/m2
12:39 48.5 °F 38.0 °F 30.16 in East 8.1 mph 4.4 mph 67% 0.00 in 255.00 W/m2
12:44 48.9 °F 38.8 °F 30.16 in East 6.9 mph 5.7 mph 68% 0.00 in 450.00 W/m2
12:49 49.5 °F 39.4 °F 30.16 in East 8.1 mph 3.3 mph 68% 0.00 in 543.00 W/m2
12:54 50.1 °F 38.4 °F 30.16 in East 6.9 mph 4.0 mph 64% 0.00 in 529.00 W/m2
12:59 50.4 °F 38.3 °F 30.16 in East 8.0 mph 4.9 mph 63% 0.00 in 424.00 W/m2
13:04 50.4 °F 38.7 °F 30.16 in SE 9.2 mph 4.6 mph 64% 0.00 in 510.00 W/m2
13:09 50.9 °F 38.7 °F 30.16 in ESE 9.2 mph 5.7 mph 63% 0.00 in 436.00 W/m2
13:14 50.5 °F 38.4 °F 30.16 in ESE 9.2 mph 4.2 mph 63% 0.00 in 466.00 W/m2
13:19 50.3 °F 37.8 °F 30.16 in East 4.6 mph 2.7 mph 62% 0.00 in 301.00 W/m2
13:24 50.2 °F 38.1 °F 30.16 in ESE 8.1 mph 1.4 mph 63% 0.00 in 380.00 W/m2
13:29 50.6 °F 39.7 °F 30.16 in East 8.1 mph 5.1 mph 66% 0.00 in 471.00 W/m2
13:34 50.9 °F 39.1 °F 30.16 in ENE 6.9 mph 5.8 mph 64% 0.00 in 403.00 W/m2
13:39 50.9 °F 38.7 °F 30.16 in ESE 8.1 mph 5.1 mph 63% 0.00 in 422.00 W/m2
13:44 50.8 °F 39.5 °F 30.16 in East 8.1 mph 4.9 mph 65% 0.00 in 376.00 W/m2
13:49 50.7 °F 39.4 °F 30.16 in East 9.0 mph 5.9 mph 65% 0.00 in 304.00 W/m2
13:54 50.5 °F 38.8 °F 30.16 in ENE 7.0 mph 5.1 mph 64% 0.00 in 283.00 W/m2
13:59 50.5 °F 39.2 °F 30.16 in ENE 8.1 mph 2.8 mph 65% 0.00 in 207.00 W/m2
14:04 50.5 °F 39.2 °F 30.16 in East 6.9 mph 5.7 mph 65% 0.00 in 297.00 W/m2
14:09 50.7 °F 40.1 °F 30.16 in East 6.9 mph 0.5 mph 67% 0.00 in 255.00 W/m2
14:14 50.9 °F 39.9 °F 30.16 in ESE 8.1 mph 6.0 mph 66% 0.00 in 211.00 W/m2
14:19 50.9 °F 39.9 °F 30.16 in ESE 8.1 mph 0.1 mph 66% 0.00 in 253.00 W/m2
14:24 51.1 °F 39.7 °F 30.16 in East 5.8 mph 5.3 mph 65% 0.00 in 308.00 W/m2
14:29 51.2 °F 40.2 °F 30.16 in East 7.0 mph 4.9 mph 66% 0.00 in 346.00 W/m2
14:34 51.2 °F 39.4 °F 30.16 in SE 3.5 mph 1.9 mph 64% 0.00 in 206.00 W/m2
14:39 51.3 °F 39.9 °F 30.16 in ESE 9.2 mph 5.0 mph 65% 0.00 in 158.00 W/m2
14:44 51.0 °F 39.6 °F 30.16 in ESE 4.6 mph 3.0 mph 65% 0.00 in 139.00 W/m2
14:49 50.8 °F 39.8 °F 30.16 in SE 3.0 mph 1.1 mph 66% 0.00 in 128.00 W/m2
14:54 50.7 °F 39.4 °F 30.16 in SE 5.0 mph 2.9 mph 65% 0.00 in 135.00 W/m2
14:59 50.7 °F 39.7 °F 30.16 in East 4.6 mph 1.5 mph 66% 0.00 in 141.00 W/m2
15:04 50.8 °F 40.6 °F 30.16 in ESE 4.6 mph 2.6 mph 68% 0.00 in 156.00 W/m2
15:09 51.0 °F 40.8 °F 30.16 in ESE 4.6 mph 2.9 mph 68% 0.00 in 98.00 W/m2
15:14 50.8 °F 40.2 °F 30.16 in East 4.6 mph 1.4 mph 67% 0.00 in 107.00 W/m2
15:19 50.7 °F 40.5 °F 30.16 in ESE 3.5 mph   68% 0.00 in 91.00 W/m2
15:24 50.8 °F 40.6 °F 30.15 in ESE 1.0 mph 0.6 mph 68% 0.00 in 294.00 W/m2
15:29 51.4 °F 40.0 °F 30.15 in East 5.8 mph 3.2 mph 65% 0.00 in 248.00 W/m2
15:34 51.8 °F 40.8 °F 30.15 in East 6.0 mph 1.6 mph 66% 0.00 in 385.00 W/m2
15:39 52.1 °F 40.3 °F 30.16 in SE 7.0 mph 3.4 mph 64% 0.00 in 216.00 W/m2
15:44 51.8 °F 40.8 °F 30.16 in East 3.5 mph 3.2 mph 66% 0.00 in 98.00 W/m2
15:49 51.2 °F 39.8 °F 30.16 in East 6.9 mph 4.4 mph 65% 0.00 in 88.00 W/m2
15:54 50.8 °F 39.8 °F 30.16 in ESE 5.8 mph 3.2 mph 66% 0.00 in 97.00 W/m2
15:59 50.6 °F 39.7 °F 30.16 in ESE 5.8 mph 1.1 mph 66% 0.00 in 83.00 W/m2
16:04 50.5 °F 40.3 °F 30.16 in ESE 5.8 mph 3.5 mph 68% 0.00 in 83.00 W/m2
16:09 50.4 °F 40.6 °F 30.16 in ESE 5.8 mph 2.5 mph 69% 0.00 in 70.00 W/m2
16:14 50.3 °F 40.5 °F 30.16 in East 6.9 mph 3.2 mph 69% 0.00 in 63.00 W/m2
16:19 50.2 °F 40.8 °F 30.16 in East 5.8 mph 2.7 mph 70% 0.00 in 58.00 W/m2
16:24 50.1 °F 40.7 °F 30.15 in ESE 6.9 mph 5.6 mph 70% 0.00 in 60.00 W/m2
16:29 50.0 °F 40.6 °F 30.16 in East 6.9 mph 3.0 mph 70% 0.00 in 53.00 W/m2
16:34 50.0 °F 40.6 °F 30.16 in East 6.9 mph 4.6 mph 70% 0.00 in 44.00 W/m2
16:39 49.9 °F 40.9 °F 30.16 in East 6.9 mph 4.1 mph 71% 0.00 in 40.00 W/m2
16:44 49.9 °F 40.9 °F 30.16 in East 4.6 mph 3.0 mph 71% 0.00 in 44.00 W/m2
16:49 49.8 °F 40.8 °F 30.16 in East 3.5 mph 2.5 mph 71% 0.00 in 39.00 W/m2
16:54 49.7 °F 40.7 °F 30.16 in East 8.1 mph 2.8 mph 71% 0.00 in 32.00 W/m2
16:59 49.6 °F 40.6 °F 30.17 in East 4.6 mph 3.3 mph 71% 0.00 in 18.00 W/m2
17:04 49.5 °F 40.5 °F 30.16 in East 8.1 mph 4.0 mph 71% 0.00 in 11.00 W/m2
17:09 49.4 °F 40.7 °F 30.16 in East 3.5 mph   72% 0.00 in 11.00 W/m2
17:14 49.2 °F 40.9 °F 30.16 in ESE 4.0 mph 2.3 mph 73% 0.00 in 5.00 W/m2
17:19 49.0 °F 40.7 °F 30.17 in East 5.8 mph 0.5 mph 73% 0.00 in 5.00 W/m2
17:24 48.9 °F 40.6 °F 30.17 in East 4.6 mph 2.2 mph 73% 0.00 in 0.00 W/m2
17:29 48.8 °F 40.9 °F 30.17 in East 5.8 mph 2.3 mph 74% 0.00 in 0.00 W/m2
17:34 48.7 °F 40.8 °F 30.17 in East 4.6 mph 0.3 mph 74% 0.00 in 0.00 W/m2
17:39 48.6 °F 40.7 °F 30.17 in East 6.9 mph 3.0 mph 74% 0.00 in 0.00 W/m2
17:44 48.5 °F 40.6 °F 30.16 in East 5.8 mph 1.3 mph 74% 0.00 in 0.00 W/m2
17:49 48.3 °F 40.7 °F 30.16 in East 3.0 mph 2.8 mph 75% 0.00 in 0.00 W/m2
17:54 48.1 °F 40.9 °F 30.16 in Calm     76% 0.00 in 0.00 W/m2
17:59 47.8 °F 40.9 °F 30.17 in ENE 2.3 mph 0.3 mph 77% 0.00 in 0.00 W/m2
18:04 47.7 °F 40.8 °F 30.17 in ENE 3.5 mph 2.0 mph 77% 0.00 in 0.00 W/m2
18:09 47.6 °F 40.7 °F 30.18 in ENE 3.5 mph   77% 0.00 in 0.00 W/m2
18:14 47.5 °F 40.6 °F 30.17 in ENE 3.5 mph 0.1 mph 77% 0.00 in 0.00 W/m2
18:19 47.5 °F 40.6 °F 30.18 in Calm   0.2 mph 77% 0.00 in 0.00 W/m2
18:24 47.4 °F 40.6 °F 30.18 in East 3.5 mph 1.0 mph 77% 0.00 in 0.00 W/m2
18:29 47.4 °F 40.9 °F 30.18 in ENE 3.5 mph 0.5 mph 78% 0.00 in 0.00 W/m2
18:34 47.3 °F 40.8 °F 30.18 in East 4.6 mph 2.1 mph 78% 0.00 in 0.00 W/m2
18:39 47.3 °F 40.8 °F 30.18 in East 5.8 mph 3.4 mph 78% 0.00 in 0.00 W/m2
18:44 47.3 °F 40.8 °F 30.18 in East 5.0 mph 2.8 mph 78% 0.00 in 0.00 W/m2
18:49 47.2 °F 40.7 °F 30.18 in ENE 2.3 mph 1.3 mph 78% 0.00 in 0.00 W/m2
18:54 47.2 °F 40.7 °F 30.18 in ENE 5.8 mph 2.3 mph 78% 0.00 in 0.00 W/m2
18:59 47.2 °F 40.7 °F 30.18 in ENE 5.8 mph 2.1 mph 78% 0.00 in 0.00 W/m2
19:04 47.1 °F 40.6 °F 30.18 in ENE 6.9 mph 4.6 mph 78% 0.00 in 0.00 W/m2
19:09 47.1 °F 40.6 °F 30.18 in ENE 9.2 mph 4.1 mph 78% 0.00 in 0.00 W/m2
19:14 47.1 °F 40.6 °F 30.18 in East 9.2 mph 5.1 mph 78% 0.00 in 0.00 W/m2
19:19 47.0 °F 40.8 °F 30.19 in ENE 6.9 mph 4.6 mph 79% 0.00 in 0.00 W/m2
19:24 47.0 °F 40.8 °F 30.19 in East 9.2 mph 4.4 mph 79% 0.00 in 0.00 W/m2
19:29 47.0 °F 40.8 °F 30.19 in ENE 8.1 mph 6.3 mph 79% 0.00 in 0.00 W/m2
19:34 46.9 °F 40.7 °F 30.19 in East 8.1 mph 3.4 mph 79% 0.00 in 0.00 W/m2
19:39 46.8 °F 41.0 °F 30.19 in East 9.2 mph 5.2 mph 80% 0.00 in 0.00 W/m2
19:44 46.7 °F 40.9 °F 30.20 in ENE 8.1 mph 4.0 mph 80% 0.00 in 0.00 W/m2
19:49 46.7 °F 41.2 °F 30.20 in East 6.0 mph 3.7 mph 81% 0.00 in 0.00 W/m2
19:54 46.6 °F 41.1 °F 30.20 in East 5.0 mph   81% 0.00 in 0.00 W/m2
19:59 46.5 °F 41.0 °F 30.20 in East 8.1 mph 3.4 mph 81% 0.00 in 0.00 W/m2
20:04 46.4 °F 40.9 °F 30.20 in ENE 8.1 mph 3.0 mph 81% 0.00 in 0.00 W/m2
20:09 46.4 °F 41.2 °F 30.20 in ENE 5.8 mph 2.9 mph 82% 0.00 in 0.00 W/m2
20:14 46.4 °F 41.2 °F 30.20 in ENE 5.8 mph 3.0 mph 82% 0.00 in 0.00 W/m2
20:19 46.3 °F 41.1 °F 30.20 in East 5.0 mph 1.8 mph 82% 0.00 in 0.00 W/m2
20:24 46.3 °F 41.4 °F 30.20 in East 5.8 mph 3.7 mph 83% 0.00 in 0.00 W/m2
20:29 46.1 °F 41.2 °F 30.20 in East 4.6 mph 1.2 mph 83% 0.00 in 0.00 W/m2
20:34 46.0 °F 41.4 °F 30.20 in East 5.8 mph 0.5 mph 84% 0.00 in 0.00 W/m2
20:39 45.9 °F 41.6 °F 30.20 in ESE 4.6 mph 2.4 mph 85% 0.00 in 0.00 W/m2
20:44 45.8 °F 41.5 °F 30.20 in East 3.5 mph 1.4 mph 85% 0.00 in 0.00 W/m2
20:49 45.6 °F 41.7 °F 30.20 in East 3.5 mph 0.3 mph 86% 0.00 in 0.00 W/m2
20:54 45.6 °F 41.7 °F 30.20 in East 5.8 mph 2.5 mph 86% 0.01 in 0.00 W/m2
20:59 45.5 °F 41.9 °F 30.20 in East 8.0 mph 2.7 mph 87% 0.01 in 0.00 W/m2
21:04 45.4 °F 41.8 °F 30.20 in East 8.1 mph 5.1 mph 87% 0.01 in 0.00 W/m2
21:09 45.4 °F 41.8 °F 30.20 in East 6.0 mph 4.2 mph 87% 0.01 in 0.00 W/m2
21:14 45.4 °F 41.8 °F 30.20 in ESE 9.0 mph 6.3 mph 87% 0.01 in 0.00 W/m2
21:19 45.3 °F 41.7 °F 30.20 in ESE 5.8 mph 4.3 mph 87% 0.02 in 0.00 W/m2
21:24 45.2 °F 41.9 °F 30.20 in ESE 6.9 mph 2.9 mph 88% 0.02 in 0.00 W/m2
21:29 45.1 °F 41.8 °F 30.20 in ESE 5.8 mph 1.9 mph 88% 0.02 in 0.00 W/m2
21:34 45.0 °F 42.0 °F 30.20 in East 4.6 mph 2.2 mph 89% 0.02 in 0.00 W/m2
21:39 45.0 °F 42.0 °F 30.20 in SE 6.9 mph 4.0 mph 89% 0.02 in 0.00 W/m2
21:44 44.9 °F 41.9 °F 30.20 in East 10.4 mph 4.4 mph 89% 0.02 in 0.00 W/m2
21:49 44.9 °F 41.9 °F 30.20 in East 7.0 mph 5.2 mph 89% 0.02 in 0.00 W/m2
21:54 44.8 °F 42.0 °F 30.20 in East 8.1 mph 4.2 mph 90% 0.02 in 0.00 W/m2
21:59 44.8 °F 42.0 °F 30.20 in ESE 8.1 mph 4.8 mph 90% 0.02 in 0.00 W/m2
22:04 44.7 °F 41.9 °F 30.20 in ESE 5.8 mph 2.8 mph 90% 0.02 in 0.00 W/m2
22:09 44.7 °F 41.9 °F 30.20 in East 10.4 mph 3.3 mph 90% 0.03 in 0.00 W/m2
22:14 44.7 °F 41.9 °F 30.20 in East 6.9 mph 5.2 mph 90% 0.03 in 0.00 W/m2
22:19 44.6 °F 42.1 °F 30.20 in East 6.9 mph 2.8 mph 91% 0.02 in 0.00 W/m2
22:24 44.6 °F 42.1 °F 30.20 in East 10.4 mph 2.5 mph 91% 0.02 in 0.00 W/m2
22:29 44.6 °F 42.1 °F 30.20 in East 5.8 mph 1.9 mph 91% 0.02 in 0.00 W/m2
22:34 44.6 °F 42.1 °F 30.21 in East 4.6 mph 1.5 mph 91% 0.02 in 0.00 W/m2
22:39 44.6 °F 42.1 °F 30.21 in ESE 6.9 mph 2.7 mph 91% 0.02 in 0.00 W/m2
22:44 44.5 °F 42.0 °F 30.21 in ESE 7.0 mph 4.0 mph 91% 0.02 in 0.00 W/m2
22:49 44.5 °F 42.0 °F 30.21 in ESE 4.6 mph 1.8 mph 91% 0.02 in 0.00 W/m2
22:54 44.5 °F 42.0 °F 30.21 in East 4.6 mph 2.8 mph 91% 0.01 in 0.00 W/m2
22:59 44.5 °F 42.0 °F 30.21 in ESE 4.6 mph 2.9 mph 91% 0.01 in 0.00 W/m2
23:04 44.5 °F 42.0 °F 30.21 in ESE 6.9 mph 1.3 mph 91% 0.01 in 0.00 W/m2
23:09 44.5 °F 42.0 °F 30.20 in East 5.8 mph 4.0 mph 91% 0.00 in 0.00 W/m2
23:14 44.5 °F 42.0 °F 30.20 in East 7.0 mph 4.2 mph 91% 0.00 in 0.00 W/m2
23:19 44.4 °F 41.9 °F 30.20 in ESE 6.9 mph 3.1 mph 91% 0.00 in 0.00 W/m2
23:24 44.4 °F 41.9 °F 30.20 in SE 6.9 mph 4.9 mph 91% 0.00 in 0.00 W/m2
23:29 44.4 °F 41.9 °F 30.20 in ESE 9.2 mph 5.3 mph 91% 0.00 in 0.00 W/m2
23:34 44.5 °F 42.0 °F 30.20 in ESE 9.0 mph 3.8 mph 91% 0.00 in 0.00 W/m2
23:39 44.5 °F 42.0 °F 30.19 in ESE 9.2 mph 5.6 mph 91% 0.00 in 0.00 W/m2
23:44 44.6 °F 42.1 °F 30.19 in East 8.1 mph 3.7 mph 91% 0.00 in 0.00 W/m2
23:49 44.7 °F 42.2 °F 30.20 in ESE 8.1 mph 2.7 mph 91% 0.00 in 0.00 W/m2
23:54 44.7 °F 42.2 °F 30.20 in East 6.9 mph 4.9 mph 91% 0.00 in 0.00 W/m2
23:59 44.7 °F 42.2 °F 30.20 in ESE 8.1 mph 3.8 mph 91% 0.00 in 0.00 W/m2
Bourbonnais, Illinois, USA
Compliments of Weather Underground - 2 mb